Jayton, Texas
Current Conditions -  °F | °C
As of 6:15 AM on Friday 19 Dec 2014 (Local Time) from KSNK Reporting Station
Overcast Overcast  
Wind Chill: 32°   Ceiling: 800
Heat Index: 39°   Visibility: 10mi
Dew Point: 37°   Wind: 10mph
Humidity: 92%   Direction: 70°ENE
Pressure: 30.15"   Gusts: NA
Location:  33.25°N, 100.57°W
Report Text: KSNK 191215Z AUTO 07009KT 10SM OVC008 04/03 A3015 RMK AO2 T00380026
Loading
Personal Weather Stations






























Interactive Weather Map New forecast layout! Learn more

10-Day Weather Forecast

Advertisements
Track Severe Weather on mobile